createdAt,value
2018-11-23T00:01:59.250Z,15.80
2018-11-23T00:04:31.434Z,21.90
2018-11-23T00:07:03.443Z,18.60
2018-11-23T00:09:35.413Z,22.80
2018-11-23T00:12:07.687Z,20.10
2018-11-23T00:14:39.698Z,22.50
2018-11-23T00:17:11.470Z,26.37
2018-11-23T00:19:43.151Z,30.00
2018-11-23T00:22:15.815Z,29.93
2018-11-23T00:24:48.007Z,26.77
2018-11-23T00:27:20.249Z,24.37
2018-11-23T00:29:53.283Z,22.03
2018-11-23T00:32:25.155Z,19.43
2018-11-23T00:34:56.791Z,19.73
2018-11-23T00:37:28.653Z,21.40
2018-11-23T00:40:00.610Z,19.97
2018-11-23T00:42:32.663Z,24.63
2018-11-23T00:45:05.148Z,20.87
2018-11-23T00:47:36.933Z,23.40
2018-11-23T00:50:12.263Z,21.27
2018-11-23T00:52:44.818Z,19.97
2018-11-23T00:55:18.375Z,20.73
2018-11-23T00:57:50.715Z,24.77
2018-11-23T01:00:27.534Z,21.40
2018-11-23T01:03:00.847Z,21.57
2018-11-23T01:05:32.933Z,23.77
2018-11-23T01:08:05.022Z,19.53
2018-11-23T01:10:36.840Z,23.83
2018-11-23T01:13:08.737Z,20.77
2018-11-23T01:15:40.359Z,17.97
2018-11-23T01:18:12.816Z,19.33
2018-11-23T01:20:44.521Z,19.37
2018-11-23T01:23:17.239Z,20.90
2018-11-23T01:25:49.688Z,15.70
2018-11-23T01:28:21.861Z,16.97
2018-11-23T01:30:54.144Z,16.87
2018-11-23T01:33:25.935Z,17.67
2018-11-23T01:35:57.831Z,15.37
2018-11-23T01:38:29.568Z,19.60
2018-11-23T01:41:01.227Z,20.27
2018-11-23T01:43:32.886Z,16.63
2018-11-23T01:46:05.024Z,20.23
2018-11-23T01:48:36.857Z,17.60
2018-11-23T01:51:08.666Z,20.07
2018-11-23T01:53:41.236Z,19.77
2018-11-23T01:56:13.630Z,21.40
2018-11-23T01:58:45.560Z,22.17
2018-11-23T02:01:17.283Z,20.40
2018-11-23T02:03:49.011Z,20.00
2018-11-23T02:06:20.811Z,18.10
2018-11-23T02:08:52.877Z,22.07
2018-11-23T02:11:25.195Z,21.43
2018-11-23T02:13:57.271Z,20.63
2018-11-23T02:16:29.401Z,20.13
2018-11-23T02:19:01.211Z,18.70
2018-11-23T02:21:33.272Z,20.47
2018-11-23T02:24:05.036Z,15.97
2018-11-23T02:26:36.990Z,20.57
2018-11-23T02:29:09.065Z,21.10
2018-11-23T02:31:41.885Z,21.80
2018-11-23T02:34:14.074Z,23.57
2018-11-23T02:36:47.997Z,19.70
2018-11-23T02:39:19.928Z,18.63
2018-11-23T02:41:52.043Z,19.73
2018-11-23T02:44:23.974Z,17.77
2018-11-23T02:46:55.719Z,21.63
2018-11-23T02:49:29.063Z,25.17
2018-11-23T02:52:01.488Z,25.83
2018-11-23T02:54:33.451Z,29.57
2018-11-23T02:57:05.632Z,25.27
2018-11-23T02:59:38.656Z,26.40
2018-11-23T03:02:11.232Z,24.97
2018-11-23T03:04:43.446Z,26.40
2018-11-23T03:07:16.260Z,24.87
2018-11-23T03:09:48.275Z,21.87
2018-11-23T03:12:20.127Z,26.20
2018-11-23T03:14:51.915Z,25.37
2018-11-23T03:17:23.691Z,25.20
2018-11-23T03:19:55.480Z,27.90
2018-11-23T03:22:28.131Z,28.73
2018-11-23T03:25:00.425Z,33.37
2018-11-23T03:27:32.401Z,27.17
2018-11-23T03:30:04.208Z,28.90
2018-11-23T03:32:36.892Z,24.87
2018-11-23T03:35:09.187Z,25.23
2018-11-23T03:37:41.121Z,24.73
2018-11-23T03:40:14.079Z,25.40
2018-11-23T03:42:45.958Z,23.33
2018-11-23T03:45:18.318Z,20.87
2018-11-23T03:47:50.830Z,21.23
2018-11-23T03:50:22.995Z,19.97
2018-11-23T03:52:54.989Z,21.47
2018-11-23T03:55:27.005Z,19.90
2018-11-23T03:57:58.926Z,18.50
2018-11-23T04:00:31.130Z,21.87
2018-11-23T04:03:04.170Z,19.47
2018-11-23T04:05:35.981Z,23.00
2018-11-23T04:08:08.094Z,23.83
2018-11-23T04:10:40.203Z,24.53
2018-11-23T04:13:12.155Z,25.27
2018-11-23T04:15:44.657Z,23.03
2018-11-23T04:18:16.676Z,25.23
2018-11-23T04:21:03.709Z,22.53
2018-11-23T04:23:36.613Z,23.00
2018-11-23T04:26:08.847Z,23.63
2018-11-23T04:28:41.826Z,23.47
2018-11-23T04:31:13.778Z,22.30
2018-11-23T04:33:45.750Z,21.87
2018-11-23T04:36:18.162Z,27.27
2018-11-23T04:38:50.626Z,28.67
2018-11-23T04:41:23.552Z,23.63
2018-11-23T04:43:55.602Z,26.70
2018-11-23T04:46:27.375Z,27.63
2018-11-23T04:48:59.151Z,25.13
2018-11-23T04:51:31.752Z,23.00
2018-11-23T04:54:03.828Z,23.60
2018-11-23T04:56:36.195Z,37.50
2018-11-23T04:59:08.908Z,36.63
2018-11-23T05:01:39.938Z,33.60
2018-11-23T05:04:11.163Z,31.47
2018-11-23T05:06:42.328Z,27.90
2018-11-23T05:09:13.249Z,29.17
2018-11-23T05:11:44.167Z,27.90
2018-11-23T05:14:15.210Z,29.17
2018-11-23T05:16:46.259Z,26.67
2018-11-23T05:19:17.455Z,25.10
2018-11-23T05:21:48.470Z,24.43
2018-11-23T05:24:19.495Z,23.63
2018-11-23T05:26:50.419Z,20.40
2018-11-23T05:29:21.256Z,26.83
2018-11-23T05:31:52.242Z,21.77
2018-11-23T05:34:23.190Z,27.90
2018-11-23T05:36:54.135Z,24.87
2018-11-23T05:39:25.016Z,23.13
2018-11-23T05:41:55.955Z,21.57
2018-11-23T05:44:26.836Z,27.20
2018-11-23T05:46:57.730Z,22.90
2018-11-23T05:49:28.604Z,24.40
2018-11-23T05:51:59.433Z,23.77
2018-11-23T05:54:30.531Z,22.53
2018-11-23T05:57:01.609Z,22.33
2018-11-23T05:59:32.718Z,23.30
2018-11-23T06:02:03.766Z,28.50
2018-11-23T06:04:34.689Z,29.57
2018-11-23T06:07:05.782Z,26.73
2018-11-23T06:09:36.798Z,28.03
2018-11-23T06:12:07.773Z,26.67
2018-11-23T06:14:38.739Z,25.33
2018-11-23T06:17:09.650Z,25.70
2018-11-23T06:19:40.614Z,29.83
2018-11-23T06:22:11.530Z,38.70
2018-11-23T06:24:42.407Z,50.47
2018-11-23T06:27:13.287Z,53.07
2018-11-23T06:29:44.049Z,50.13
2018-11-23T06:32:31.501Z,41.27
2018-11-23T06:35:02.333Z,30.47
2018-11-23T06:37:33.230Z,28.07
2018-11-23T06:40:04.203Z,29.40
2018-11-23T06:42:41.961Z,24.23
2018-11-23T06:45:06.816Z,23.67
2018-11-23T06:47:37.731Z,20.37
2018-11-23T06:50:13.128Z,21.37
2018-11-23T06:52:44.152Z,18.57
2018-11-23T06:55:15.202Z,20.67
2018-11-23T06:57:46.177Z,17.50
2018-11-23T07:00:17.565Z,18.73
2018-11-23T07:02:49.224Z,16.70
2018-11-23T07:05:20.342Z,19.97
2018-11-23T07:07:51.555Z,19.80
2018-11-23T07:10:22.537Z,20.17
2018-11-23T07:12:53.689Z,27.23
2018-11-23T07:15:24.615Z,27.87
2018-11-23T07:17:55.538Z,42.63
2018-11-23T07:20:26.517Z,35.37
2018-11-23T07:22:57.422Z,35.83
2018-11-23T07:25:28.327Z,31.77
2018-11-23T07:27:59.223Z,34.20
2018-11-23T07:30:30.636Z,30.97
2018-11-23T07:33:01.627Z,29.90
2018-11-23T07:35:32.600Z,29.23
2018-11-23T07:38:03.514Z,23.13
2018-11-23T07:40:51.636Z,24.53
2018-11-23T07:43:22.504Z,26.70
2018-11-23T07:45:53.458Z,69.80
2018-11-23T07:48:24.336Z,39.47
2018-11-23T07:50:55.811Z,30.33
2018-11-23T07:53:26.596Z,26.87
2018-11-23T07:55:57.747Z,28.47
2018-11-23T07:58:28.635Z,30.57
2018-11-23T08:00:59.472Z,25.03
2018-11-23T08:03:30.519Z,25.17
2018-11-23T08:06:01.712Z,21.07
2018-11-23T08:08:32.690Z,23.37
2018-11-23T08:11:07.294Z,25.13
2018-11-23T08:13:39.034Z,22.30
2018-11-23T08:16:09.968Z,25.87
2018-11-23T08:18:40.923Z,36.63
2018-11-23T08:21:11.895Z,39.23
2018-11-23T08:23:42.832Z,37.10
2018-11-23T08:26:13.760Z,32.63
2018-11-23T08:28:44.697Z,29.60
2018-11-23T08:31:15.819Z,26.07
2018-11-23T08:33:46.849Z,30.23
2018-11-23T08:36:17.764Z,27.10
2018-11-23T08:38:48.635Z,21.23
2018-11-23T08:41:19.696Z,22.90
2018-11-23T08:43:50.618Z,21.47
2018-11-23T08:46:21.682Z,22.43
2018-11-23T08:48:52.932Z,24.97
2018-11-23T08:51:23.874Z,22.73
2018-11-23T08:53:54.752Z,24.20
2018-11-23T08:56:25.578Z,22.57
2018-11-23T08:58:56.545Z,24.47
2018-11-23T09:01:27.520Z,18.23
2018-11-23T09:03:58.535Z,20.37
2018-11-23T09:06:29.557Z,20.23
2018-11-23T09:09:00.439Z,18.63
2018-11-23T09:11:31.329Z,23.23
2018-11-23T09:14:02.164Z,21.73
2018-11-23T09:16:33.106Z,23.13
2018-11-23T09:19:04.296Z,21.17
2018-11-23T09:21:35.283Z,20.53
2018-11-23T09:24:06.410Z,24.57
2018-11-23T09:26:37.364Z,25.33
2018-11-23T09:29:08.351Z,20.40
2018-11-23T09:31:39.549Z,24.77
2018-11-23T09:34:10.534Z,20.10
2018-11-23T09:36:42.004Z,29.20
2018-11-23T09:39:13.016Z,19.93
2018-11-23T09:41:44.240Z,19.70
2018-11-23T09:44:15.147Z,15.43
2018-11-23T09:46:46.147Z,20.00
2018-11-23T09:49:17.021Z,21.00
2018-11-23T09:51:47.925Z,18.30
2018-11-23T09:54:18.975Z,19.40
2018-11-23T09:56:49.975Z,19.37
2018-11-23T09:59:21.154Z,18.57
2018-11-23T10:01:51.980Z,19.53
2018-11-23T10:04:22.894Z,21.40
2018-11-23T10:06:53.841Z,20.93
2018-11-23T10:09:24.778Z,21.03
2018-11-23T10:11:55.872Z,19.73
2018-11-23T10:14:26.890Z,20.97
2018-11-23T10:16:57.860Z,20.47
2018-11-23T10:19:33.896Z,19.03
2018-11-23T10:22:04.991Z,17.10
2018-11-23T10:24:35.977Z,16.93
2018-11-23T10:27:06.974Z,20.90
2018-11-23T10:29:37.945Z,17.80
2018-11-23T10:32:08.842Z,20.53
2018-11-23T10:34:39.927Z,20.80
2018-11-23T10:37:10.991Z,19.40
2018-11-23T10:39:42.044Z,20.33
2018-11-23T10:42:12.867Z,21.60
2018-11-23T10:44:43.833Z,22.67
2018-11-23T10:47:14.739Z,19.80
2018-11-23T10:49:46.471Z,18.03
2018-11-23T10:52:17.474Z,19.90
2018-11-23T10:54:48.327Z,19.13
2018-11-23T10:57:19.358Z,28.20
2018-11-23T10:59:50.129Z,23.27
2018-11-23T11:02:26.095Z,20.23
2018-11-23T11:05:02.073Z,23.70
2018-11-23T11:07:33.020Z,20.87
2018-11-23T11:10:03.979Z,24.10
2018-11-23T11:12:35.247Z,24.50
2018-11-23T11:15:06.747Z,26.23
2018-11-23T11:17:37.645Z,29.20
2018-11-23T11:20:10.321Z,24.07
2018-11-23T11:22:41.191Z,23.70
2018-11-23T11:25:12.316Z,27.30
2018-11-23T11:27:43.396Z,26.13
2018-11-23T11:30:16.854Z,27.93
2018-11-23T11:32:48.595Z,27.33
2018-11-23T11:35:19.409Z,30.17
2018-11-23T11:37:50.365Z,24.70
2018-11-23T11:40:21.338Z,26.93
2018-11-23T11:42:52.328Z,29.53
2018-11-23T11:45:23.191Z,28.87
2018-11-23T11:47:54.339Z,32.77
2018-11-23T11:50:25.248Z,33.77
2018-11-23T11:52:56.231Z,31.20
2018-11-23T11:55:27.066Z,31.13
2018-11-23T11:57:58.182Z,34.20
2018-11-23T12:00:29.203Z,36.63
2018-11-23T12:03:00.296Z,28.60
2018-11-23T12:05:31.167Z,30.73
2018-11-23T12:08:01.936Z,30.27
2018-11-23T12:10:33.020Z,29.07
2018-11-23T12:13:03.899Z,27.07
2018-11-23T12:15:35.031Z,27.13
2018-11-23T12:18:06.330Z,28.33
2018-11-23T12:20:37.358Z,33.03
2018-11-23T12:23:08.205Z,33.47
2018-11-23T12:25:39.418Z,30.43
2018-11-23T12:28:10.455Z,32.10
2018-11-23T12:30:41.665Z,30.30
2018-11-23T12:33:12.698Z,39.23
2018-11-23T12:35:43.612Z,35.97
2018-11-23T12:38:14.632Z,58.73
2018-11-23T12:40:45.724Z,61.60
2018-11-23T12:43:16.814Z,45.97
2018-11-23T12:45:47.788Z,50.37
2018-11-23T12:48:18.793Z,66.83
2018-11-23T12:50:50.686Z,159.83
2018-11-23T12:53:20.976Z,62.60
2018-11-23T12:55:51.907Z,45.73
2018-11-23T12:58:22.905Z,44.97
2018-11-23T13:00:53.899Z,47.77
2018-11-23T13:03:24.753Z,53.73
2018-11-23T13:05:55.652Z,60.23
2018-11-23T13:08:26.818Z,53.80
2018-11-23T13:10:57.721Z,46.93
2018-11-23T13:13:28.837Z,46.73
2018-11-23T13:15:59.825Z,53.07
2018-11-23T13:18:30.692Z,51.43
2018-11-23T13:21:01.598Z,52.77
2018-11-23T13:23:32.531Z,54.87
2018-11-23T13:26:03.600Z,61.23
2018-11-23T13:28:34.632Z,55.97
2018-11-23T13:31:05.548Z,55.80
2018-11-23T13:33:36.396Z,64.00
2018-11-23T13:36:09.051Z,66.20
2018-11-23T13:38:40.035Z,58.27
2018-11-23T13:41:11.063Z,60.23
2018-11-23T13:43:41.973Z,54.43
2018-11-23T13:46:13.077Z,55.83
2018-11-23T13:48:44.175Z,51.53
2018-11-23T13:51:15.173Z,60.67
2018-11-23T13:53:46.719Z,64.27
2018-11-23T13:56:17.641Z,63.00
2018-11-23T13:58:48.635Z,62.13
2018-11-23T14:01:19.803Z,60.87
2018-11-23T14:03:50.716Z,67.73
2018-11-23T14:06:22.003Z,63.90
2018-11-23T14:08:53.165Z,65.17
2018-11-23T14:11:24.310Z,70.13
2018-11-23T14:13:55.519Z,63.47
2018-11-23T14:16:26.588Z,66.87
2018-11-23T14:18:57.750Z,69.17
2018-11-23T14:21:28.925Z,70.83
2018-11-23T14:24:00.307Z,58.53
2018-11-23T14:26:31.373Z,57.50
2018-11-23T14:29:02.589Z,59.37
2018-11-23T14:31:33.884Z,50.03
2018-11-23T14:34:05.226Z,66.00
2018-11-23T14:36:36.252Z,75.67
2018-11-23T14:39:10.327Z,76.30
2018-11-23T14:41:41.508Z,55.60
2018-11-23T14:44:12.468Z,57.33
2018-11-23T14:46:43.499Z,66.77
2018-11-23T14:49:14.524Z,56.53
2018-11-23T14:51:45.636Z,66.83
2018-11-23T14:54:16.733Z,101.50
2018-11-23T14:56:48.078Z,92.13
2018-11-23T14:59:19.383Z,92.30
2018-11-23T15:01:52.154Z,98.83
2018-11-23T15:04:21.561Z,87.97
2018-11-23T15:06:52.504Z,78.83
2018-11-23T15:09:23.542Z,70.83
2018-11-23T15:11:54.550Z,68.07
2018-11-23T15:14:25.927Z,60.27
2018-11-23T15:16:57.099Z,63.73
2018-11-23T15:19:28.105Z,62.13
2018-11-23T15:21:59.482Z,57.37
2018-11-23T15:24:30.589Z,56.63
2018-11-23T15:27:01.722Z,114.97
2018-11-23T15:29:33.123Z,122.67
2018-11-23T15:32:04.449Z,87.80
2018-11-23T15:34:35.712Z,74.77
2018-11-23T15:37:07.318Z,70.67
2018-11-23T15:39:38.285Z,74.37
2018-11-23T15:42:09.426Z,66.87
2018-11-23T15:44:40.672Z,127.00
2018-11-23T15:47:11.940Z,105.20
2018-11-23T15:49:43.160Z,83.37
2018-11-23T15:52:14.258Z,82.57
2018-11-23T15:54:45.495Z,84.57
2018-11-23T15:57:16.533Z,90.30
2018-11-23T15:59:47.552Z,99.67
2018-11-23T16:02:18.737Z,102.87
2018-11-23T16:04:49.828Z,92.20
2018-11-23T16:07:21.616Z,81.03
2018-11-23T16:09:52.760Z,83.63
2018-11-23T16:12:24.267Z,78.60
2018-11-23T16:14:55.480Z,74.57
2018-11-23T16:17:26.902Z,73.47
2018-11-23T16:19:58.513Z,66.17
2018-11-23T16:22:29.704Z,86.00
2018-11-23T16:25:00.825Z,89.90
2018-11-23T16:27:31.877Z,80.43
2018-11-23T16:32:31.706Z,87.83
2018-11-23T16:35:03.800Z,81.47
2018-11-23T16:37:36.233Z,74.23
2018-11-23T16:40:12.853Z,69.60
2018-11-23T16:42:45.236Z,76.43
2018-11-23T16:45:20.420Z,81.73
2018-11-23T16:47:53.409Z,78.83
2018-11-23T16:50:26.142Z,95.13
2018-11-23T16:52:58.746Z,79.97
2018-11-23T16:55:31.382Z,74.03
2018-11-23T16:58:08.415Z,88.23
2018-11-23T17:00:42.420Z,84.60
2018-11-23T17:03:17.560Z,66.30
2018-11-23T17:05:51.630Z,61.83
2018-11-23T17:08:24.274Z,58.07
2018-11-23T17:10:56.656Z,86.47
2018-11-23T17:13:29.025Z,77.30
2018-11-23T17:16:01.529Z,74.77
2018-11-23T17:18:34.177Z,65.47
2018-11-23T17:21:06.331Z,78.83
2018-11-23T17:23:39.390Z,69.00
2018-11-23T17:26:13.433Z,67.43
2018-11-23T17:28:45.981Z,76.10
2018-11-23T17:31:18.309Z,84.00
2018-11-23T17:33:50.929Z,68.03
2018-11-23T17:36:23.271Z,71.83
2018-11-23T17:38:55.693Z,66.63
2018-11-23T17:41:29.263Z,69.10
2018-11-23T17:44:01.554Z,81.40
2018-11-23T17:46:34.409Z,94.90
2018-11-23T17:49:07.253Z,94.07
2018-11-23T17:51:40.156Z,107.07
2018-11-23T17:54:12.680Z,90.60
2018-11-23T17:56:44.935Z,75.77
2018-11-23T17:59:17.158Z,69.97
2018-11-23T18:01:50.187Z,81.47
2018-11-23T18:04:22.626Z,87.20
2018-11-23T18:06:55.048Z,79.40
2018-11-23T18:09:27.860Z,77.23
2018-11-23T18:12:00.030Z,74.00
2018-11-23T18:14:32.321Z,69.13
2018-11-23T18:17:04.869Z,65.07
2018-11-23T18:19:37.468Z,68.20
2018-11-23T18:22:10.464Z,78.77
2018-11-23T18:24:42.906Z,77.97
2018-11-23T18:27:14.967Z,92.20
2018-11-23T18:29:47.076Z,82.17
2018-11-23T18:32:19.588Z,84.27
2018-11-23T18:34:52.820Z,85.80
2018-11-23T18:37:25.574Z,83.50
2018-11-23T18:39:58.453Z,75.07
2018-11-23T18:42:31.006Z,70.77
2018-11-23T18:45:03.319Z,73.63
2018-11-23T18:47:36.435Z,78.70
2018-11-23T18:50:11.796Z,65.00
2018-11-23T18:52:44.491Z,59.13
2018-11-23T18:55:18.297Z,66.90
2018-11-23T18:57:50.454Z,69.70
2018-11-23T19:00:23.534Z,74.70
2018-11-23T19:02:56.142Z,72.63
2018-11-23T19:05:30.680Z,71.97
2018-11-23T19:08:02.833Z,70.93
2018-11-23T19:10:35.336Z,62.70
2018-11-23T19:13:07.799Z,74.33
2018-11-23T19:15:40.157Z,70.10
2018-11-23T19:18:12.491Z,74.23
2018-11-23T19:20:45.140Z,74.73
2018-11-23T19:23:17.363Z,72.07
2018-11-23T19:25:50.004Z,64.53
2018-11-23T19:28:22.378Z,77.93
2018-11-23T19:30:55.508Z,74.87
2018-11-23T19:33:27.912Z,71.07
2018-11-23T19:36:00.723Z,76.23
2018-11-23T19:38:33.394Z,71.07
2018-11-23T19:41:05.796Z,70.10
2018-11-23T19:43:39.232Z,72.10
2018-11-23T19:46:11.511Z,92.83
2018-11-23T19:48:44.370Z,82.27
2018-11-23T19:51:17.213Z,75.87
2018-11-23T19:53:49.382Z,76.00
2018-11-23T19:56:21.803Z,80.33
2018-11-23T19:58:54.736Z,80.53
2018-11-23T20:01:27.243Z,90.00
2018-11-23T20:04:00.184Z,87.77
2018-11-23T20:06:32.406Z,103.07
2018-11-23T20:09:05.251Z,84.13
2018-11-23T20:11:38.717Z,88.97
2018-11-23T20:14:11.846Z,86.10
2018-11-23T20:16:44.431Z,80.77
2018-11-23T20:19:17.211Z,70.30
2018-11-23T20:21:49.304Z,73.97
2018-11-23T20:24:21.759Z,75.77
2018-11-23T20:26:54.328Z,80.13
2018-11-23T20:29:26.813Z,66.40
2018-11-23T20:31:59.787Z,76.80
2018-11-23T20:34:32.515Z,78.87
2018-11-23T20:37:04.848Z,78.70
2018-11-23T20:39:37.187Z,70.73
2018-11-23T20:42:09.778Z,81.63
2018-11-23T20:44:42.411Z,73.60
2018-11-23T20:47:15.728Z,65.43
2018-11-23T20:49:48.631Z,69.40
2018-11-23T20:52:22.739Z,76.93
2018-11-23T20:54:55.153Z,77.27
2018-11-23T20:57:28.435Z,75.67
2018-11-23T21:00:01.788Z,74.43
2018-11-23T21:02:34.182Z,75.87
2018-11-23T21:05:08.183Z,82.33
2018-11-23T21:07:41.761Z,77.60
2018-11-23T21:10:24.479Z,76.33
2018-11-23T21:12:58.330Z,78.40
2018-11-23T21:15:32.608Z,71.53
2018-11-23T21:18:08.326Z,75.10
2018-11-23T21:20:40.886Z,71.03
2018-11-23T21:23:13.597Z,77.77
2018-11-23T21:25:47.193Z,84.27
2018-11-23T21:28:19.420Z,79.27
2018-11-23T21:30:51.504Z,79.10
2018-11-23T21:33:24.434Z,80.03
2018-11-23T21:35:56.569Z,84.70
2018-11-23T21:38:28.736Z,75.47
2018-11-23T21:41:01.199Z,86.13
2018-11-23T21:43:33.376Z,80.47
2018-11-23T21:46:06.394Z,84.10
2018-11-23T21:48:39.988Z,80.40
2018-11-23T21:51:12.467Z,81.33
2018-11-23T21:53:45.821Z,80.13
2018-11-23T21:56:18.694Z,80.67
2018-11-23T21:58:51.791Z,87.77
2018-11-23T22:01:24.103Z,93.67
2018-11-23T22:03:56.318Z,88.77
2018-11-23T22:06:28.303Z,82.83
2018-11-23T22:09:00.834Z,81.57
2018-11-23T22:11:32.971Z,83.17
2018-11-23T22:14:05.243Z,82.37
2018-11-23T22:16:37.879Z,85.33
2018-11-23T22:19:10.007Z,79.33
2018-11-23T22:21:42.140Z,78.90
2018-11-23T22:24:14.199Z,73.90
2018-11-23T22:26:46.267Z,68.83
2018-11-23T22:29:18.491Z,75.30
2018-11-23T22:31:50.480Z,80.03
2018-11-23T22:34:22.674Z,70.53
2018-11-23T22:36:54.584Z,76.03
2018-11-23T22:39:26.687Z,78.47
2018-11-23T22:41:58.665Z,71.60
2018-11-23T22:44:30.686Z,78.43
2018-11-23T22:47:03.081Z,78.13
2018-11-23T22:49:35.124Z,79.23
2018-11-23T22:52:07.085Z,71.40
2018-11-23T22:54:39.273Z,68.43
2018-11-23T22:57:11.799Z,68.17
2018-11-23T22:59:43.444Z,66.00
2018-11-23T23:02:16.508Z,68.60
2018-11-23T23:04:48.723Z,67.23
2018-11-23T23:07:20.936Z,56.97
2018-11-23T23:09:52.819Z,60.07
2018-11-23T23:12:24.762Z,58.83
2018-11-23T23:14:56.767Z,57.23
2018-11-23T23:17:28.621Z,59.73
2018-11-23T23:20:00.597Z,63.20
2018-11-23T23:22:32.900Z,70.70
2018-11-23T23:25:06.148Z,69.33
2018-11-23T23:27:37.948Z,68.27
2018-11-23T23:30:14.121Z,67.23
2018-11-23T23:32:46.433Z,67.00
2018-11-23T23:35:19.322Z,62.63
2018-11-23T23:37:51.311Z,56.77
2018-11-23T23:40:23.446Z,55.40
2018-11-23T23:42:55.391Z,57.83
2018-11-23T23:45:27.387Z,52.60
2018-11-23T23:47:59.443Z,60.67
2018-11-23T23:50:31.533Z,49.37
2018-11-23T23:53:03.447Z,54.43
2018-11-23T23:55:35.621Z,52.37
2018-11-23T23:58:07.774Z,48.77
